Time;durP1;ratioP1;P1;durP2;ratioP2;P2;SDS_P1;SDS_P2;PMS_P1;PMS_P2;Temp;Humidity;BMP_temperature;BMP_pressure;BME280_temperature;BME280_humidity;BME280_pressure;Samples;Min_cycle;Max_cycle;Signal;HPM_P1;HPM_P2
2021/09/06 00:01:33;;;;;;;6.30;5.67;;;;;;;17.53;65.83;95408.03;5012396;28;20439;-81
2021/09/06 00:03:59;;;;;;;6.50;5.90;;;;;;;17.55;65.43;95397.25;5012609;28;20479;-82
2021/09/06 00:06:28;;;;;;;6.67;5.60;;;;;;;17.59;65.81;95399.44;4977778;28;20619;-81
2021/09/06 00:08:57;;;;;;;6.90;5.80;;;;;;;17.57;65.39;95396.09;5012429;28;20460;-81
2021/09/06 00:11:24;;;;;;;7.43;5.67;;;;;;;17.59;64.97;95406.56;5012432;28;20813;-81
2021/09/06 00:13:51;;;;;;;7.33;6.10;;;;;;;17.61;65.38;95399.28;5012229;28;20452;-81
2021/09/06 00:16:19;;;;;;;9.23;6.40;;;;;;;17.59;65.88;95399.44;5012892;28;20828;-81
2021/09/06 00:18:46;;;;;;;9.90;7.17;;;;;;;17.64;65.29;95404.28;5016040;28;20494;-81
2021/09/06 00:21:13;;;;;;;9.63;6.10;;;;;;;17.54;65.77;95408.88;5016062;28;20443;-81
2021/09/06 00:23:40;;;;;;;7.20;5.50;;;;;;;17.49;65.88;95409.34;5016387;28;20485;-81
2021/09/06 00:26:09;;;;;;;6.50;5.60;;;;;;;17.57;65.47;95416.50;5015950;28;20942;-81
2021/09/06 00:28:35;;;;;;;9.03;6.17;;;;;;;17.60;65.43;95402.91;5015805;28;20544;-81
2021/09/06 00:31:04;;;;;;;6.63;6.03;;;;;;;17.70;65.42;95418.75;5016055;28;20530;-81
2021/09/06 00:33:31;;;;;;;6.20;5.70;;;;;;;17.76;65.40;95415.47;5015781;28;20944;-81
2021/09/06 00:35:58;;;;;;;6.23;5.63;;;;;;;17.76;65.52;95420.75;5015658;28;20450;-82
2021/09/06 00:38:26;;;;;;;8.20;6.53;;;;;;;17.75;65.80;95430.56;5016068;28;20497;-81
2021/09/06 00:40:53;;;;;;;7.47;6.33;;;;;;;17.79;65.70;95429.22;5015867;28;20474;-81
2021/09/06 00:43:21;;;;;;;8.40;6.67;;;;;;;17.80;66.36;95420.28;5015849;28;20449;-81
2021/09/06 00:45:48;;;;;;;7.90;6.40;;;;;;;17.80;66.59;95424.75;5015960;28;20590;-80
2021/09/06 00:48:18;;;;;;;11.03;6.57;;;;;;;17.77;66.36;95430.38;5015631;28;20439;-81
2021/09/06 00:50:46;;;;;;;8.00;6.73;;;;;;;17.71;66.18;95420.41;5015658;28;20478;-81
2021/09/06 00:53:13;;;;;;;6.70;6.10;;;;;;;17.67;66.35;95430.53;5015458;28;20458;-81
2021/09/06 00:55:40;;;;;;;7.67;6.23;;;;;;;17.69;66.39;95433.84;5015580;28;20475;-81
2021/09/06 00:58:07;;;;;;;8.83;6.40;;;;;;;17.63;66.83;95439.75;5015290;28;20447;-81
2021/09/06 01:00:35;;;;;;;8.13;6.03;;;;;;;17.44;67.62;95440.00;5015817;28;20807;-81
2021/09/06 01:03:02;;;;;;;8.43;7.53;;;;;;;17.40;67.74;95438.66;5015612;28;20451;-81
2021/09/06 01:05:30;;;;;;;8.50;6.97;;;;;;;17.37;68.20;95445.13;5015256;28;20451;-81
2021/09/06 01:07:58;;;;;;;6.37;5.73;;;;;;;17.33;69.00;95443.75;5015353;28;20821;-81
2021/09/06 01:10:25;;;;;;;7.83;6.83;;;;;;;17.38;68.93;95445.97;5015569;28;21001;-81
2021/09/06 01:12:52;;;;;;;8.17;6.83;;;;;;;17.33;69.37;95444.59;5015277;28;20938;-81
2021/09/06 01:15:19;;;;;;;11.03;7.53;;;;;;;17.30;69.29;95438.75;5015062;28;20450;-81
2021/09/06 01:17:48;;;;;;;9.83;7.83;;;;;;;17.26;70.01;95448.88;5015415;28;20462;-81
2021/09/06 01:20:14;;;;;;;9.57;7.33;;;;;;;17.13;70.80;95443.16;5015294;28;20491;-81
2021/09/06 01:22:42;;;;;;;8.70;7.40;;;;;;;17.11;70.64;95439.84;4980545;28;20443;-81
2021/09/06 01:25:14;;;;;;;7.63;6.93;;;;;;;17.10;71.05;95443.47;5014711;28;20449;-81
2021/09/06 01:27:42;;;;;;;10.67;7.93;;;;;;;17.12;71.43;95445.97;5014853;28;20439;-81
2021/09/06 01:30:10;;;;;;;9.13;7.30;;;;;;;17.05;72.52;95440.44;5014859;28;20447;-81
2021/09/06 01:32:37;;;;;;;13.47;7.57;;;;;;;17.10;72.75;95451.44;5014998;28;20535;-81
2021/09/06 01:35:04;;;;;;;13.80;8.20;;;;;;;17.11;73.13;95446.97;5014610;28;20534;-81
2021/09/06 01:37:31;;;;;;;11.87;8.57;;;;;;;17.11;73.54;95450.44;5014710;28;20977;-81
2021/09/06 01:39:58;;;;;;;12.77;8.33;;;;;;;17.11;73.92;95458.41;5015286;28;20617;-81
2021/09/06 01:42:25;;;;;;;9.93;8.00;;;;;;;17.16;73.45;95444.66;4980234;28;20961;-81
2021/09/06 01:44:53;;;;;;;8.67;7.20;;;;;;;17.22;73.59;95454.66;5014548;28;20798;-81
2021/09/06 01:47:20;;;;;;;8.93;8.03;;;;;;;17.20;74.41;95449.50;5015101;28;20446;-80
2021/09/06 01:49:47;;;;;;;9.03;7.47;;;;;;;17.23;74.42;95454.47;5014869;28;20530;-81
2021/09/06 01:52:14;;;;;;;13.20;9.60;;;;;;;17.22;74.36;95452.81;5014489;28;20450;-81
2021/09/06 01:54:41;;;;;;;13.17;8.57;;;;;;;17.21;74.54;95453.81;4979997;28;20453;-81
2021/09/06 01:57:08;;;;;;;10.10;7.90;;;;;;;17.27;74.50;95453.19;5014467;28;20554;-81
2021/09/06 01:59:37;;;;;;;8.73;7.93;;;;;;;17.30;74.13;95452.84;5014555;28;20557;-81
2021/09/06 02:02:05;;;;;;;16.87;9.40;;;;;;;17.31;74.33;95459.00;5014267;28;20462;-81
2021/09/06 02:04:32;;;;;;;11.20;9.40;;;;;;;17.35;74.60;95463.03;5014324;28;20539;-81
2021/09/06 02:06:59;;;;;;;9.53;8.57;;;;;;;17.39;73.90;95450.28;4979672;28;20453;-81
2021/09/06 02:09:26;;;;;;;12.53;8.37;;;;;;;17.34;74.31;95450.72;5014647;28;20807;-81
2021/09/06 02:11:53;;;;;;;9.77;8.33;;;;;;;17.27;74.92;95458.47;5014259;28;20444;-81
2021/09/06 02:14:20;;;;;;;10.67;8.77;;;;;;;17.29;75.10;95455.66;5013994;28;20444;-81
2021/09/06 02:16:47;;;;;;;10.90;8.67;;;;;;;17.29;75.17;95464.47;5014254;28;20456;-81
2021/09/06 02:19:15;;;;;;;13.20;8.93;;;;;;;17.29;75.08;95456.50;4979314;28;20558;-81
2021/09/06 02:21:42;;;;;;;9.40;8.40;;;;;;;17.36;74.72;95458.56;5014001;28;20450;-81
2021/09/06 02:24:11;;;;;;;14.13;9.03;;;;;;;17.37;74.36;95455.75;5013790;28;20444;-81
2021/09/06 02:26:38;;;;;;;8.63;7.67;;;;;;;17.36;74.53;95455.91;4980163;28;20447;-81
2021/09/06 02:29:05;;;;;;;10.60;8.47;;;;;;;17.30;74.86;95455.50;5013812;28;20538;-82
2021/09/06 02:31:32;;;;;;;10.37;8.77;;;;;;;17.38;74.95;95461.88;5013777;28;20451;-81
2021/09/06 02:33:59;;;;;;;12.80;7.23;;;;;;;17.39;74.67;95463.53;4979366;28;20447;-81
2021/09/06 02:36:27;;;;;;;10.30;8.23;;;;;;;17.34;74.70;95448.91;5013894;28;20454;-81
2021/09/06 02:38:55;;;;;;;8.40;7.60;;;;;;;17.25;75.09;95452.50;5013054;28;20522;-81
2021/09/06 02:41:22;;;;;;;8.90;7.60;;;;;;;17.28;75.01;95454.84;4978889;28;21010;-81
2021/09/06 02:43:48;;;;;;;9.97;8.97;;;;;;;17.29;75.55;95453.03;5013776;28;20447;-81
2021/09/06 02:46:15;;;;;;;10.50;8.17;;;;;;;17.25;75.67;95460.47;5013920;28;21094;-81
2021/09/06 02:48:42;;;;;;;10.80;7.90;;;;;;;17.18;76.12;95454.13;5013507;28;20439;-82
2021/09/06 02:51:09;;;;;;;8.70;7.80;;;;;;;17.16;75.91;95464.06;5013393;28;20459;-81
2021/09/06 02:53:37;;;;;;;12.63;8.33;;;;;;;17.14;76.22;95455.44;5013666;28;20810;-81
2021/09/06 02:56:05;;;;;;;14.23;8.27;;;;;;;17.16;76.56;95460.56;4994880;28;20452;-82
2021/09/06 02:58:32;;;;;;;12.40;9.37;;;;;;;17.08;76.56;95461.38;5013202;28;20525;-82
2021/09/06 03:00:59;;;;;;;9.67;8.70;;;;;;;17.05;77.20;95456.34;5013534;28;20526;-81
2021/09/06 03:03:25;;;;;;;10.30;9.20;;;;;;;16.93;77.40;95455.78;4994797;28;20438;-81
2021/09/06 03:05:52;;;;;;;10.00;8.20;;;;;;;16.87;78.16;95458.22;5012725;28;20459;-81
2021/09/06 03:08:19;;;;;;;10.43;9.33;;;;;;;16.82;78.28;95460.50;5014107;28;20509;-83
2021/09/06 03:10:48;;;;;;;12.00;9.23;;;;;;;16.79;78.95;95464.31;5014219;28;20441;-82
2021/09/06 03:13:15;;;;;;;11.33;9.90;;;;;;;16.73;79.48;95463.06;5014042;28;20439;-82
2021/09/06 03:15:42;;;;;;;12.00;9.30;;;;;;;16.86;78.75;95473.31;5014562;28;20546;-81
2021/09/06 03:18:09;;;;;;;9.90;8.90;;;;;;;17.01;78.65;95461.13;4979527;28;20459;-81
2021/09/06 03:20:36;;;;;;;9.93;8.80;;;;;;;17.30;77.40;95474.09;5014092;28;20584;-79
2021/09/06 03:23:03;;;;;;;12.50;9.63;;;;;;;17.41;77.02;95478.31;5014204;28;20431;-79
2021/09/06 03:25:29;;;;;;;14.73;9.50;;;;;;;17.49;76.73;95481.00;4979955;28;20450;-79
2021/09/06 03:27:58;;;;;;;10.23;9.13;;;;;;;17.47;76.50;95471.53;5014041;28;21145;-79
2021/09/06 03:30:25;;;;;;;11.23;10.03;;;;;;;17.56;76.46;95487.31;5013993;28;20427;-79
2021/09/06 03:32:52;;;;;;;12.23;9.10;;;;;;;17.73;75.56;95482.16;5013905;28;20523;-79
2021/09/06 03:35:21;;;;;;;10.67;9.10;;;;;;;17.53;75.77;95482.34;5013664;28;20439;-79
2021/09/06 03:37:51;;;;;;;23.33;9.60;;;;;;;17.37;76.44;95486.75;5013404;28;20436;-80
2021/09/06 03:40:20;;;;;;;11.23;9.17;;;;;;;17.30;76.66;95481.22;5013543;28;20490;-80
2021/09/06 03:42:47;;;;;;;12.37;8.87;;;;;;;17.14;77.12;95484.59;5013474;28;20946;-83
2021/09/06 03:45:15;;;;;;;8.67;7.87;;;;;;;17.15;77.67;95488.91;5013521;28;20566;-81
2021/09/06 03:47:43;;;;;;;10.03;9.03;;;;;;;17.14;77.50;95492.56;5012461;28;20448;-83
2021/09/06 03:50:11;;;;;;;10.00;8.83;;;;;;;17.07;77.99;95501.31;5012265;28;20446;-83
2021/09/06 03:52:38;;;;;;;10.80;9.73;;;;;;;16.80;79.13;95499.59;5012381;28;20978;-83
2021/09/06 03:55:07;;;;;;;11.10;9.90;;;;;;;16.82;79.46;95497.63;5012135;28;20443;-83
2021/09/06 03:57:34;;;;;;;11.37;9.63;;;;;;;16.80;79.41;95499.59;5012399;28;20443;-82
2021/09/06 04:00:01;;;;;;;12.87;8.90;;;;;;;16.82;80.20;95497.63;5012215;28;20486;-83
2021/09/06 04:02:30;;;;;;;11.53;9.17;;;;;;;16.80;79.85;95504.91;5012481;28;20553;-82
2021/09/06 04:04:59;;;;;;;12.30;10.00;;;;;;;16.76;80.12;95506.16;5012377;28;20526;-82
2021/09/06 04:07:26;;;;;;;14.50;10.27;;;;;;;16.72;79.94;95498.53;5012493;28;20447;-82
2021/09/06 04:09:54;;;;;;;12.57;10.10;;;;;;;16.63;81.00;95502.06;5012507;28;20916;-83
2021/09/06 04:12:21;;;;;;;9.20;8.30;;;;;;;16.62;80.64;95508.34;5012102;28;20442;-82
2021/09/06 04:14:50;;;;;;;12.03;10.33;;;;;;;16.69;80.62;95500.66;5012232;28;20535;-82
2021/09/06 04:17:17;;;;;;;14.20;10.87;;;;;;;16.86;80.58;95504.28;5012311;28;20869;-82
2021/09/06 04:19:45;;;;;;;12.87;9.30;;;;;;;17.08;80.31;95506.44;5011918;28;20519;-82
2021/09/06 04:22:12;;;;;;;14.00;10.27;;;;;;;17.43;78.59;95510.81;5011840;28;20546;-82
2021/09/06 04:24:40;;;;;;;10.60;8.87;;;;;;;18.06;81.45;95525.59;5012054;28;20283;-80
2021/09/06 04:27:07;;;;;;;12.50;9.17;;;;;;;18.93;76.00;95516.34;5011915;28;20464;-80
2021/09/06 04:29:33;;;;;;;10.30;8.37;;;;;;;19.61;70.31;95515.94;5012030;28;20532;-81
2021/09/06 04:32:01;;;;;;;14.80;10.07;;;;;;;20.11;67.25;95518.28;5011956;28;20454;-82
2021/09/06 04:34:29;;;;;;;12.27;9.33;;;;;;;20.51;65.84;95524.44;5012607;28;20474;-84
2021/09/06 04:36:57;;;;;;;11.50;9.60;;;;;;;20.65;64.95;95518.38;5012097;28;20446;-84
2021/09/06 04:39:24;;;;;;;10.60;9.60;;;;;;;20.82;64.31;95522.59;5012065;28;20818;-85
2021/09/06 04:41:51;;;;;;;11.93;9.90;;;;;;;20.91;63.07;95521.53;4977592;28;20452;-85
2021/09/06 04:44:18;;;;;;;12.83;9.13;;;;;;;20.90;63.07;95522.53;4977399;28;20545;-85
2021/09/06 04:46:45;;;;;;;10.83;9.73;;;;;;;21.04;63.13;95529.75;5012900;28;20978;-85
2021/09/06 04:49:12;;;;;;;15.33;9.27;;;;;;;21.19;61.94;95534.31;5011769;28;20995;-85
2021/09/06 04:51:39;;;;;;;15.47;9.50;;;;;;;21.32;61.52;95530.03;5011725;28;20456;-85
2021/09/06 04:54:07;;;;;;;10.60;9.37;;;;;;;21.54;61.15;95530.19;5011666;28;20448;-85
2021/09/06 04:56:34;;;;;;;10.60;8.67;;;;;;;21.77;60.71;95535.47;5012109;28;20524;-85
2021/09/06 04:59:01;;;;;;;16.00;8.47;;;;;;;22.00;59.45;95530.88;5011866;28;20792;-85
2021/09/06 05:01:28;;;;;;;16.03;10.10;;;;;;;22.15;59.02;95537.06;5012108;28;20481;-85
2021/09/06 05:03:55;;;;;;;13.27;9.43;;;;;;;22.14;58.45;95543.44;5014242;28;20449;-85
2021/09/06 05:06:22;;;;;;;10.50;8.57;;;;;;;22.23;58.69;95542.31;5016282;28;20524;-86
2021/09/06 05:08:49;;;;;;;14.43;9.67;;;;;;;22.41;58.15;95541.09;5016261;28;20472;-84
2021/09/06 05:31:27;;;;;;;14.40;10.50;;;;;;;21.93;62.46;95562.84;5015966;28;20426;-86
2021/09/06 05:33:54;;;;;;;11.83;9.00;;;;;;;21.78;62.20;95558.50;5016737;28;20524;-86
2021/09/06 05:36:21;;;;;;;16.93;10.03;;;;;;;21.65;63.27;95554.59;4981607;28;20828;-86
2021/09/06 05:38:48;;;;;;;10.10;9.20;;;;;;;21.59;62.85;95568.69;5015914;28;20465;-83
2021/09/06 05:41:15;;;;;;;14.67;8.40;;;;;;;21.40;63.57;95552.38;5015491;28;20840;-80
2021/09/06 05:43:42;;;;;;;10.00;9.00;;;;;;;21.31;63.54;95564.94;5015628;28;20911;-86
2021/09/06 05:46:09;;;;;;;10.17;9.10;;;;;;;20.54;65.88;95562.28;5015551;28;20473;-88
2021/09/06 05:48:37;;;;;;;13.17;8.60;;;;;;;20.23;67.60;95559.53;5015946;28;20519;-83
2021/09/06 05:51:04;;;;;;;12.07;9.13;;;;;;;20.17;68.19;95568.22;5015456;28;20944;-83
2021/09/06 05:53:31;;;;;;;15.57;10.23;;;;;;;20.10;68.80;95575.25;5015797;28;20448;-82
2021/09/06 05:55:58;;;;;;;15.13;9.23;;;;;;;20.33;68.35;95570.84;5015677;28;20453;-80
2021/09/06 05:58:25;;;;;;;11.47;9.60;;;;;;;20.27;69.12;95566.19;5015679;28;20428;-80
2021/09/06 06:00:54;;;;;;;10.13;9.03;;;;;;;20.27;68.84;95558.22;5015472;28;20470;-81
2021/09/06 06:03:21;;;;;;;11.00;9.27;;;;;;;20.44;68.58;95563.47;5015600;28;20447;-81
2021/09/06 06:05:50;;;;;;;12.40;10.33;;;;;;;20.40;68.72;95557.66;4981160;28;20443;-81
2021/09/06 06:08:16;;;;;;;10.27;9.27;;;;;;;20.61;68.17;95557.06;5015497;28;20432;-81
2021/09/06 06:10:43;;;;;;;12.37;10.00;;;;;;;20.50;68.00;95557.44;5015179;28;20499;-81
2021/09/06 06:16:32;;;;;;;11.90;9.67;;;;;;;20.55;68.68;95557.78;5014202;28;20973;-82
2021/09/06 06:18:59;;;;;;;12.43;10.03;;;;;;;20.89;68.22;95552.88;5015121;28;20455;-80
2021/09/06 06:21:28;;;;;;;12.50;9.57;;;;;;;20.70;67.27;95548.84;5015359;28;20554;-80
2021/09/06 06:23:55;;;;;;;9.60;8.57;;;;;;;20.89;67.74;95542.22;5015478;28;20444;-80
2021/09/06 06:26:22;;;;;;;14.93;9.10;;;;;;;21.31;66.10;95557.75;5015309;28;20924;-80
2021/09/06 06:28:49;;;;;;;10.30;9.20;;;;;;;21.42;65.79;95550.34;5015491;28;20467;-80
2021/09/06 06:31:17;;;;;;;11.80;9.37;;;;;;;21.77;64.59;95559.53;5014623;28;20525;-81
2021/09/06 06:33:44;;;;;;;9.63;8.60;;;;;;;21.99;64.47;95563.13;5014646;28;20440;-80
2021/09/06 06:36:11;;;;;;;10.47;9.03;;;;;;;22.10;63.28;95560.84;4980491;28;20459;-80
2021/09/06 06:42:01;;;;;;;10.07;8.73;;;;;;;21.94;62.12;95566.34;5013562;28;20484;-80
2021/09/06 06:44:30;;;;;;;10.33;8.23;;;;;;;22.16;62.25;95570.81;5014366;28;20458;-80
2021/09/06 06:46:57;;;;;;;11.03;8.77;;;;;;;22.67;60.89;95570.00;5015137;28;20471;-80
2021/09/06 06:49:24;;;;;;;9.90;8.53;;;;;;;22.62;59.88;95572.44;4980385;28;20449;-80
2021/09/06 06:51:51;;;;;;;12.63;9.70;;;;;;;22.81;59.20;95577.19;5013742;28;20454;-80
2021/09/06 06:54:18;;;;;;;10.30;9.23;;;;;;;22.59;59.32;95579.00;5013646;28;20454;-80
2021/09/06 06:56:46;;;;;;;13.33;9.77;;;;;;;22.33;60.40;95581.31;5013376;28;20818;-80
2021/09/06 06:59:14;;;;;;;19.50;10.37;;;;;;;22.30;60.99;95585.19;5013391;28;20459;-80
2021/09/06 07:01:42;;;;;;;9.40;8.47;;;;;;;22.10;61.75;95578.75;5013368;28;20473;-80
2021/09/06 07:04:08;;;;;;;10.13;8.90;;;;;;;21.85;63.21;95580.81;5011256;28;20459;-80
2021/09/06 07:06:35;;;;;;;14.57;10.93;;;;;;;21.67;64.01;95578.47;5013176;28;20484;-81
2021/09/06 07:09:02;;;;;;;10.03;9.00;;;;;;;21.36;64.84;95581.25;5013397;28;20447;-80
2021/09/06 07:11:29;;;;;;;11.47;9.30;;;;;;;21.11;66.47;95583.25;5013532;28;20457;-81
2021/09/06 07:13:57;;;;;;;13.67;9.83;;;;;;;21.12;66.18;95584.94;5012962;28;20444;-80
2021/09/06 07:16:27;;;;;;;10.47;9.37;;;;;;;21.00;66.91;95587.16;5013211;28;20543;-80
2021/09/06 07:18:54;;;;;;;11.20;9.47;;;;;;;20.92;66.44;95589.06;5013398;28;20459;-80
2021/09/06 07:21:21;;;;;;;9.37;8.10;;;;;;;20.98;65.51;95591.84;4978357;28;21028;-80
2021/09/06 07:23:48;;;;;;;13.90;9.87;;;;;;;21.09;66.81;95592.44;5012918;28;21005;-80
2021/09/06 07:26:15;;;;;;;9.47;8.47;;;;;;;21.56;65.82;95597.59;5012474;28;21019;-80
2021/09/06 07:28:42;;;;;;;9.30;8.33;;;;;;;22.00;63.58;95586.19;5013072;28;20441;-80
2021/09/06 07:31:10;;;;;;;9.90;8.80;;;;;;;22.53;62.96;95593.91;5012562;28;20451;-80
2021/09/06 07:33:39;;;;;;;11.23;8.60;;;;;;;22.93;61.58;95602.47;5012716;28;20484;-81
2021/09/06 07:36:06;;;;;;;9.70;7.07;;;;;;;22.91;59.13;95601.81;5012753;28;20500;-81
2021/09/06 07:38:33;;;;;;;15.73;8.97;;;;;;;22.95;59.50;95602.28;5012419;28;20453;-80
2021/09/06 07:41:00;;;;;;;11.47;9.50;;;;;;;23.03;60.63;95605.66;5013630;28;20561;-80
2021/09/06 07:43:27;;;;;;;9.23;8.33;;;;;;;22.97;57.63;95598.38;4979719;28;20456;-80
2021/09/06 07:45:56;;;;;;;12.23;8.20;;;;;;;22.92;59.47;95592.78;5013514;28;20575;-80
2021/09/06 07:48:23;;;;;;;11.13;8.53;;;;;;;22.89;59.67;95605.72;5013570;28;20439;-80
2021/09/06 07:50:51;;;;;;;8.80;8.00;;;;;;;22.89;59.42;95603.03;5013607;28;20461;-80
2021/09/06 07:53:19;;;;;;;18.63;8.10;;;;;;;22.87;59.72;95597.88;5012459;28;20450;-80
2021/09/06 07:55:46;;;;;;;10.87;8.53;;;;;;;22.82;60.48;95600.25;5012374;28;20530;-81
2021/09/06 07:58:13;;;;;;;9.00;8.10;;;;;;;22.73;59.79;95602.19;4977986;28;20451;-80
2021/09/06 08:00:40;;;;;;;10.13;8.73;;;;;;;22.64;59.61;95606.00;5012278;28;20482;-80
2021/09/06 08:03:07;;;;;;;10.90;8.27;;;;;;;22.56;60.45;95606.13;5012343;28;20530;-81
2021/09/06 08:05:34;;;;;;;10.27;8.73;;;;;;;22.21;58.75;95608.50;5012385;28;20579;-81
2021/09/06 08:08:04;;;;;;;8.43;7.53;;;;;;;22.25;60.68;95599.09;5012268;28;20460;-81
2021/09/06 08:10:31;;;;;;;11.17;7.97;;;;;;;22.56;58.15;95606.13;5012475;28;20937;-81
2021/09/06 08:12:58;;;;;;;10.53;7.80;;;;;;;22.76;57.34;95606.34;5012371;28;20895;-81
2021/09/06 08:15:26;;;;;;;12.27;8.50;;;;;;;22.92;55.42;95599.97;4977468;28;21044;-81
2021/09/06 08:17:53;;;;;;;10.97;7.23;;;;;;;23.29;54.55;95590.88;5011919;28;20462;-80
2021/09/06 08:20:20;;;;;;;8.53;6.60;;;;;;;23.57;53.84;95599.00;5012334;28;20533;-80
2021/09/06 08:22:47;;;;;;;10.47;6.40;;;;;;;23.69;53.07;95587.56;5012140;28;20507;-81
2021/09/06 08:25:15;;;;;;;11.13;8.43;;;;;;;23.70;52.45;95601.78;4977535;28;20959;-80
2021/09/06 08:27:43;;;;;;;10.93;8.20;;;;;;;23.82;51.85;95597.56;5011908;28;20456;-80
2021/09/06 08:30:13;;;;;;;7.63;6.83;;;;;;;23.47;50.46;95602.81;5012144;28;20981;-80
2021/09/06 08:32:40;;;;;;;10.53;8.20;;;;;;;23.22;50.91;95598.88;5012021;28;20534;-80
2021/09/06 08:35:09;;;;;;;9.00;7.17;;;;;;;23.21;51.08;95593.69;5012123;28;20802;-81
2021/09/06 08:37:36;;;;;;;14.57;7.00;;;;;;;23.27;52.45;95590.25;4962733;28;20443;-81
2021/09/06 08:40:03;;;;;;;7.60;6.80;;;;;;;23.40;52.06;95593.88;5015908;28;20531;-81
2021/09/06 08:42:32;;;;;;;8.17;7.37;;;;;;;23.28;50.63;95599.94;5015804;28;20527;-81
2021/09/06 08:44:59;;;;;;;11.83;7.63;;;;;;;23.43;52.17;95598.88;5015605;28;20876;-81
2021/09/06 08:47:26;;;;;;;10.03;8.07;;;;;;;23.39;50.46;95594.91;5015681;28;20525;-80
2021/09/06 08:49:53;;;;;;;11.70;8.23;;;;;;;23.12;51.99;95595.66;5015802;28;20526;-82
2021/09/06 08:52:20;;;;;;;11.30;7.80;;;;;;;23.45;53.54;95593.31;5016666;28;21033;-80
2021/09/06 08:54:47;;;;;;;8.13;7.40;;;;;;;23.59;50.69;95597.78;5016549;28;20440;-80
2021/09/06 08:57:14;;;;;;;9.00;7.37;;;;;;;23.43;50.97;95592.69;5016633;28;20539;-82
2021/09/06 08:59:44;;;;;;;14.20;6.83;;;;;;;23.65;50.13;95590.81;5016776;28;20854;-80
2021/09/06 09:02:12;;;;;;;11.93;7.60;;;;;;;23.52;49.97;95588.00;5017005;28;20914;-81
2021/09/06 09:04:39;;;;;;;11.53;7.77;;;;;;;23.47;50.36;95599.31;5016374;28;20980;-81
2021/09/06 09:13:49;;;;;;;8.00;7.20;;;;;;;22.99;53.79;95600.88;5022598;28;20491;-82
2021/09/06 09:16:17;;;;;;;9.50;8.03;;;;;;;23.31;54.27;95587.00;5030454;28;20452;-83
2021/09/06 09:18:44;;;;;;;11.37;7.37;;;;;;;23.04;53.24;95596.59;5035872;28;20447;-81
2021/09/06 09:21:14;;;;;;;7.93;7.07;;;;;;;23.16;52.84;95587.06;5034452;28;20486;-82
2021/09/06 09:27:05;;;;;;;12.90;7.60;;;;;;;23.34;51.94;95599.16;5035229;28;20494;-82
2021/09/06 09:29:32;;;;;;;13.13;7.80;;;;;;;22.82;53.74;95598.41;5036451;28;20514;-82
2021/09/06 09:32:08;;;;;;;8.87;7.97;;;;;;;23.00;52.03;95602.53;5036472;28;20533;-80
2021/09/06 09:34:38;;;;;;;11.90;8.87;;;;;;;22.62;50.86;95597.34;5036196;28;20951;-82
2021/09/06 09:37:06;;;;;;;15.10;9.27;;;;;;;23.12;52.88;95591.13;5036037;28;20442;-84
2021/09/06 09:39:34;;;;;;;8.70;7.47;;;;;;;23.18;49.68;95590.38;5035595;28;20997;-84
2021/09/06 09:42:08;;;;;;;12.00;9.83;;;;;;;23.70;50.80;95585.72;5033673;28;20562;-82
2021/09/06 09:44:46;;;;;;;7.60;6.90;;;;;;;24.08;51.29;95584.34;5035563;28;20440;-82
2021/09/06 09:47:19;;;;;;;12.80;7.30;;;;;;;23.58;51.14;95584.59;5035380;28;20442;-82
2021/09/06 09:49:48;;;;;;;8.50;6.73;;;;;;;23.38;51.58;95601.28;5036030;28;20480;-82
2021/09/06 09:52:15;;;;;;;10.80;8.23;;;;;;;23.47;51.96;95588.59;5035482;28;20853;-82
2021/09/06 09:54:42;;;;;;;9.50;7.40;;;;;;;23.23;48.15;95588.97;5034850;28;20551;-82
2021/09/06 09:57:09;;;;;;;10.77;7.20;;;;;;;23.04;49.80;95599.28;5034515;28;20448;-82
2021/09/06 09:59:36;;;;;;;8.50;7.60;;;;;;;22.93;51.17;95585.59;5034493;28;20445;-82
2021/09/06 10:02:08;;;;;;;8.07;6.87;;;;;;;22.99;52.16;95587.50;5034334;28;20489;-82
2021/09/06 10:04:41;;;;;;;8.73;7.80;;;;;;;23.06;50.41;95593.75;5034097;28;20536;-82
2021/09/06 10:07:11;;;;;;;12.50;7.60;;;;;;;23.26;50.78;95586.75;5034265;28;20451;-81
2021/09/06 10:09:42;;;;;;;10.60;7.23;;;;;;;23.03;51.25;95581.56;5034259;28;20866;-82
2021/09/06 10:12:11;;;;;;;8.70;7.60;;;;;;;23.17;52.34;95591.41;5034128;28;20504;-82
2021/09/06 10:14:49;;;;;;;7.53;6.27;;;;;;;23.03;50.66;95586.91;5034167;28;20964;-82
2021/09/06 10:17:17;;;;;;;6.70;6.00;;;;;;;22.89;48.81;95584.31;5033988;28;20459;-82
2021/09/06 10:19:49;;;;;;;7.70;6.90;;;;;;;22.30;49.85;95589.72;5034211;28;20453;-82
2021/09/06 10:22:23;;;;;;;7.40;6.30;;;;;;;22.37;51.62;95585.28;5033863;28;20565;-82
2021/09/06 10:24:59;;;;;;;6.63;6.00;;;;;;;22.30;50.02;95585.19;5031734;28;20540;-82
2021/09/06 10:27:26;;;;;;;6.90;6.30;;;;;;;22.20;50.66;95585.47;5033631;28;20539;-82
2021/09/06 10:30:04;;;;;;;10.20;6.90;;;;;;;22.19;52.32;95589.16;5033838;28;20548;-82
2021/09/06 10:32:39;;;;;;;9.80;6.80;;;;;;;22.15;52.91;95582.50;5033757;28;20853;-82
2021/09/06 10:35:10;;;;;;;12.83;7.07;;;;;;;21.97;52.64;95584.69;5033755;28;20935;-81
2021/09/06 10:37:39;;;;;;;8.07;7.30;;;;;;;22.08;54.50;95586.94;5033471;28;20459;-82
2021/09/06 10:40:09;;;;;;;10.17;6.83;;;;;;;21.84;54.12;95584.50;5033579;28;20453;-82
2021/09/06 10:42:41;;;;;;;12.07;6.97;;;;;;;21.74;54.09;95586.59;5031450;28;20934;-82
2021/09/06 10:45:10;;;;;;;7.17;6.40;;;;;;;21.55;53.77;95583.44;5033389;28;20512;-82
2021/09/06 10:47:39;;;;;;;8.77;7.90;;;;;;;21.64;52.65;95589.50;4998320;28;20540;-82
2021/09/06 10:50:17;;;;;;;8.37;7.00;;;;;;;21.69;54.63;95586.31;5033394;28;20532;-82
2021/09/06 10:52:45;;;;;;;9.27;7.13;;;;;;;21.57;53.64;95583.25;5033690;28;20813;-82
2021/09/06 10:55:13;;;;;;;8.43;6.97;;;;;;;21.76;53.39;95587.25;5033325;28;20530;-82
2021/09/06 10:57:41;;;;;;;6.80;6.00;;;;;;;21.92;53.77;95590.56;5033003;28;20540;-82
2021/09/06 11:00:15;;;;;;;11.30;6.33;;;;;;;22.29;53.69;95588.06;5032764;28;20449;-82
2021/09/06 11:02:43;;;;;;;7.17;6.47;;;;;;;22.63;53.58;95579.44;4998062;28;20487;-82
2021/09/06 11:05:16;;;;;;;8.57;7.63;;;;;;;22.80;53.32;95586.22;5032966;28;20458;-82
2021/09/06 11:07:45;;;;;;;9.77;7.10;;;;;;;22.54;53.91;95586.72;5033129;28;20452;-81
2021/09/06 11:10:13;;;;;;;7.80;7.00;;;;;;;22.53;55.06;95582.38;4997848;28;20457;-82
2021/09/06 11:12:41;;;;;;;7.60;6.90;;;;;;;22.49;54.88;95583.78;5033276;28;20506;-82
2021/09/06 11:15:09;;;;;;;9.30;6.63;;;;;;;22.39;55.67;95593.94;5032736;28;20456;-82
2021/09/06 11:17:36;;;;;;;10.03;7.53;;;;;;;22.32;55.69;95598.38;5032896;28;20559;-81
2021/09/06 11:20:04;;;;;;;9.10;7.87;;;;;;;22.17;57.19;95599.19;5033126;28;20453;-82
2021/09/06 11:22:31;;;;;;;7.43;6.83;;;;;;;22.08;55.49;95589.63;5015518;28;20488;-82
2021/09/06 11:25:04;;;;;;;8.33;7.30;;;;;;;22.32;57.71;95593.03;5033444;28;20579;-82
2021/09/06 11:27:34;;;;;;;11.27;8.60;;;;;;;22.12;56.82;95592.75;5033706;28;20802;-81
2021/09/06 11:30:02;;;;;;;9.37;8.47;;;;;;;22.18;57.40;95598.19;5015127;28;20519;-83
2021/09/06 11:32:30;;;;;;;8.70;7.37;;;;;;;22.10;57.71;95597.44;5033035;28;20477;-81
2021/09/06 11:35:07;;;;;;;10.90;7.63;;;;;;;21.68;59.03;95595.31;5033444;28;20440;-84
2021/09/06 11:37:34;;;;;;;8.50;7.70;;;;;;;21.52;58.93;95597.16;5033754;28;20538;-85
2021/09/06 11:40:03;;;;;;;13.77;7.30;;;;;;;21.52;59.58;95597.16;5033501;28;20523;-83
2021/09/06 11:42:31;;;;;;;10.33;8.37;;;;;;;21.39;60.00;95596.91;5033825;28;20574;-83
2021/09/06 11:45:00;;;;;;;11.53;7.53;;;;;;;21.41;60.32;95588.75;5033100;28;20439;-82
2021/09/06 11:47:28;;;;;;;9.17;7.03;;;;;;;21.48;60.07;95597.69;5033682;28;20804;-83
2021/09/06 11:49:56;;;;;;;9.80;8.20;;;;;;;21.58;60.87;95600.94;5033532;28;20450;-80
2021/09/06 11:59:28;;;;;;;11.50;8.27;;;;;;;21.38;61.42;95595.25;5033366;28;20948;-81
2021/09/06 12:01:55;;;;;;;10.50;8.67;;;;;;;21.43;61.16;95592.06;5034147;28;20553;-81
2021/09/06 12:04:22;;;;;;;12.83;8.93;;;;;;;21.43;59.46;95586.72;5033164;28;21002;-79
2021/09/06 12:06:49;;;;;;;9.27;7.10;;;;;;;21.58;59.57;95590.25;5033046;28;20528;-81
2021/09/06 12:09:20;;;;;;;18.93;10.00;;;;;;;21.83;58.04;95586.34;5033360;28;20493;-81
2021/09/06 12:11:51;;;;;;;10.70;6.90;;;;;;;21.92;57.65;95587.91;5033375;28;20928;-81
2021/09/06 12:14:20;;;;;;;8.33;7.40;;;;;;;22.00;57.41;95584.34;5037468;28;20441;-81
2021/09/06 12:16:57;;;;;;;10.17;8.00;;;;;;;21.95;57.87;95581.34;5038184;28;20539;-81